AirNav   Everest Fuels
 
 1509 users online  

02PN Peco Berwyn Heliport
Berwyn, Pennsylvania, USA

GOING TO BERWYN?


FAA INFORMATION EFFECTIVE 05 DECEMBER 2019

Location

FAA Identifier: 02PN
Lat/Long: 40-03-32.4700N 075-27-41.0000W
40-03.541167N 075-27.683333W
40.0590194,-75.4613889
(estimated)
Elevation: 278 ft. / 85 m (estimated)
Variation: 11W (1985)
From city: 2 miles N of BERWYN, PA
Time zone: UTC -5 (UTC -4 during Daylight Saving Time)
Zip code: 19087

Heliport Operations

Heliport use: Private use. Permission required prior to landing
Activation date: 04/1979
Control tower: no
ARTCC: NEW YORK CENTER
FSS: WILLIAMSPORT FLIGHT SERVICE STATION
Attendance: UNATNDD
Wind indicator: yes
Segmented circle: no
Lights: RDO-CTL 122.9

Heliport Communications

WX AWOS-3T at OQN (7 nm SW): 121.4 ((610) 692-6190)
WX AWOS-3 at LOM (10 nm NE): 118.925 (215-646-1068)
WX ASOS at PTW (12 nm N): 119.425 (610-495-0823)
WX ASOS at PHL (15 nm SE): PHONE 215-492-9617
WX AWOS-3 at MQS (19 nm W): 126.25 (610-384-6132)

Nearby radio navigation aids

VOR radial/distance  VOR name  Freq  Var
PTWr164/10.8POTTSTOWN VORTAC116.5009W
MXEr058/12.8MODENA VORTAC113.2009W
DQOr026/23.8DUPONT VORTAC114.0010W
OODr354/26.4WOODSTOWN VORTAC112.8010W
ARDr255/27.9YARDLEY VOR/DME108.2010W
ETXr171/32.9EAST TEXAS VOR/DME110.2009W
LRPr104/38.3LANCASTER VOR/DME117.3009W
VCNr334/38.7CEDAR LAKE VOR/DME115.2010W
GXUr286/39.8MC GUIRE VORTAC110.6012W

 
NDB name  Hdg/Dist  Freq  Var  ID
AMBLER256/9.027512WING .. -. --.

Heliport Services

Runway Information

Helipad H1

Dimensions: 40 x 40 ft. / 12 x 12 m
Surface: asphalt, in fair condition
Runway edge lights: PERI
PERIMETER LGTS AT EDGE OF 65 FT NON-LOAD BEARING FATO.
Operational restrictions: APCH HEADINGS 220 & 130.
Latitude: 40-03.541167N
Longitude: 075-27.683333W
Elevation: 278.0 ft.
Traffic pattern: leftleft
Markings: NSTD, in good condition

Heliport Ownership and Management from official FAA records

Ownership: Privately-owned
Owner: PHILADELPHIA ELECTRIC CO.
1050 SWEDESFORD RD.
BERWYN, PA 19312
Phone (610) 941-1669
Manager: DIRK SCHOUP
1050 SWEDESFORD RD
BERWYN, PA 19312
Phone (610) 941-1669

Additional Remarks

TLOF PERIMETER MARKINGS 30 FT SQUARE, NOT IN CNTR OF 40 FT SQUARE ASPH AREA.
FOR CD CTC PHILADELPHIA APCH AT 800-354-9884.

Instrument Procedures

There are no published instrument procedures at 02PN.

Some nearby airports with instrument procedures:

KOQN - Brandywine Regional Airport (7 nm SW)
N10 - Perkiomen Valley Airport (9 nm N)
KLOM - Wings Field Airport (10 nm NE)
KPTW - Heritage Field Airport (12 nm N)
KPHL - Philadelphia International Airport (15 nm SE)
N47 - Pottstown Municipal Airport (15 nm NW)
KMQS - Chester County G O Carlson Airport (19 nm W)
7N7 - Spitfire Aerodrome (20 nm S)
N57 - New Garden Airport (20 nm SW)
 
Loc | Ops | Rwys | IFR | FBO | Links
Com | Nav | Svcs | Stats | Notes
Area around 02PN (Peco Berwyn Heliport)
 
Road maps at: MapQuest Bing Google
 
Aerial photo
No photo
 
Sectional chart

 
Airport distance calculator
Flying to Peco Berwyn Heliport? Find the distance to fly.

From to 02PN

Sunrise and sunset
Times for 05-Dec-2019
 Local
(UTC-5)
 Zulu
(UTC)
Morning civil twilight06:3911:39
Sunrise07:1012:10
Sunset16:3521:35
Evening civil twilight17:0622:06

Current date and time
Zulu (UTC)  05-Dec-2019 15:51:06
Local (UTC-5)  05-Dec-2019 10:51:06
 
METAR
KOQN 
7nm SW 
051535Z AUTO 29012G24KT 10SM SCT043 SCT060 05/M03 A2987 RMK AO2
KLOM 
10nm NE 
051535Z AUTO 28010G24KT 10SM BKN045 OVC050 05/M04 A2986 RMK AO2 T00501036
KPTW 
11nm N 
051454Z AUTO 30009G20KT 10SM CLR 03/M03 A2985 RMK AO2 SLP108 T00331033 51033
KPHL 
16nm SE 
051454Z 27016KT 10SM FEW044 SCT070 SCT140 06/M04 A2987 RMK AO2 PK WND 26028/1434 SLP113 T00561039 51035 $
KMQS 
19nm W 
051535Z AUTO 30020G26KT 10SM CLR 04/M03 A2988 RMK AO2
TAF
KPHL 
16nm SE 
051120Z 0512/0618 27011KT P6SM BKN070 FM051400 28014G24KT P6SM BKN050 FM052300 28011KT P6SM SCT050 FM060700 25006KT P6SM BKN200 FM061300 20007KT P6SM OVC100
NOTAMs
Click for the latest NOTAMs
NOTAMs are issued by the DoD/FAA and will open in a separate window not controlled by AirNav.

 

 
 

Would you like to see your business listed on this page?

 If your business provides an interesting product or service to pilots, flight crews, aircraft, or users of the Peco Berwyn Heliport, you should consider listing it here.  To start the listing process, click on the button below
 
Add a business
 

Other Pages about Peco Berwyn Heliport

Update a link
 
Copyright © AirNav, LLC. All rights reserved. Privacy Policy  Contact